sensor_id;sensor_type;location;lat;lon;timestamp;temperature;humidity
22161;DHT22;49035;48.812;11.762;2023-02-18T00:01:23;10.40;99.90
22161;DHT22;49035;48.812;11.762;2023-02-18T00:03:49;10.50;99.90
22161;DHT22;49035;48.812;11.762;2023-02-18T00:08:42;10.50;99.90
22161;DHT22;49035;48.812;11.762;2023-02-18T00:11:12;10.50;99.90
22161;DHT22;49035;48.812;11.762;2023-02-18T00:13:38;10.50;99.90
22161;DHT22;49035;48.812;11.762;2023-02-18T00:16:10;10.50;99.90
22161;DHT22;49035;48.812;11.762;2023-02-18T00:18:36;10.50;99.90
22161;DHT22;49035;48.812;11.762;2023-02-18T00:21:07;10.60;99.90
22161;DHT22;49035;48.812;11.762;2023-02-18T00:23:33;10.50;99.90
22161;DHT22;49035;48.812;11.762;2023-02-18T00:28:29;10.50;99.90
22161;DHT22;49035;48.812;11.762;2023-02-18T00:30:54;10.50;99.90
22161;DHT22;49035;48.812;11.762;2023-02-18T00:33:20;10.60;99.90
22161;DHT22;49035;48.812;11.762;2023-02-18T00:35:46;10.50;99.90
22161;DHT22;49035;48.812;11.762;2023-02-18T00:38:11;10.50;99.90
22161;DHT22;49035;48.812;11.762;2023-02-18T00:40:38;10.50;99.90
22161;DHT22;49035;48.812;11.762;2023-02-18T00:43:03;10.40;99.90
22161;DHT22;49035;48.812;11.762;2023-02-18T00:45:29;10.40;99.90
22161;DHT22;49035;48.812;11.762;2023-02-18T00:47:55;10.40;99.90
22161;DHT22;49035;48.812;11.762;2023-02-18T00:50:21;10.40;99.90
22161;DHT22;49035;48.812;11.762;2023-02-18T00:52:46;10.40;99.90
22161;DHT22;49035;48.812;11.762;2023-02-18T00:55:12;10.50;99.90
22161;DHT22;49035;48.812;11.762;2023-02-18T00:57:37;10.40;99.90
22161;DHT22;49035;48.812;11.762;2023-02-18T01:00:04;10.40;99.90
22161;DHT22;49035;48.812;11.762;2023-02-18T01:02:30;10.40;99.90
22161;DHT22;49035;48.812;11.762;2023-02-18T01:04:56;10.40;99.90
22161;DHT22;49035;48.812;11.762;2023-02-18T01:07:22;10.40;99.90
22161;DHT22;49035;48.812;11.762;2023-02-18T01:09:47;10.40;99.90
22161;DHT22;49035;48.812;11.762;2023-02-18T01:12:13;10.40;99.90
22161;DHT22;49035;48.812;11.762;2023-02-18T01:14:39;10.40;99.90
22161;DHT22;49035;48.812;11.762;2023-02-18T01:17:04;10.40;99.90
22161;DHT22;49035;48.812;11.762;2023-02-18T01:19:33;10.40;99.90
22161;DHT22;49035;48.812;11.762;2023-02-18T01:21:59;10.50;99.90
22161;DHT22;49035;48.812;11.762;2023-02-18T01:24:24;10.50;99.90
22161;DHT22;49035;48.812;11.762;2023-02-18T01:26:50;10.50;99.90
22161;DHT22;49035;48.812;11.762;2023-02-18T01:29:16;10.50;99.90
22161;DHT22;49035;48.812;11.762;2023-02-18T01:31:41;10.40;99.90
22161;DHT22;49035;48.812;11.762;2023-02-18T01:34:07;10.40;99.90
22161;DHT22;49035;48.812;11.762;2023-02-18T01:36:32;10.50;99.90
22161;DHT22;49035;48.812;11.762;2023-02-18T01:38:58;10.50;99.90
22161;DHT22;49035;48.812;11.762;2023-02-18T01:41:23;10.50;99.90
22161;DHT22;49035;48.812;11.762;2023-02-18T01:44:10;10.50;99.90
22161;DHT22;49035;48.812;11.762;2023-02-18T01:46:36;10.50;99.90
22161;DHT22;49035;48.812;11.762;2023-02-18T01:49:01;10.50;99.90
22161;DHT22;49035;48.812;11.762;2023-02-18T01:51:37;10.60;99.90
22161;DHT22;49035;48.812;11.762;2023-02-18T01:54:29;10.50;99.90
22161;DHT22;49035;48.812;11.762;2023-02-18T01:57:06;10.50;99.90
22161;DHT22;49035;48.812;11.762;2023-02-18T01:59:39;10.50;99.90
22161;DHT22;49035;48.812;11.762;2023-02-18T02:02:09;10.60;99.90
22161;DHT22;49035;48.812;11.762;2023-02-18T02:04:35;10.60;99.90
22161;DHT22;49035;48.812;11.762;2023-02-18T02:07:01;10.50;99.90
22161;DHT22;49035;48.812;11.762;2023-02-18T02:09:28;10.60;99.90
22161;DHT22;49035;48.812;11.762;2023-02-18T02:14:29;10.50;99.90
22161;DHT22;49035;48.812;11.762;2023-02-18T02:48:28;10.60;99.90
22161;DHT22;49035;48.812;11.762;2023-02-18T02:50:46;10.60;99.90
22161;DHT22;49035;48.812;11.762;2023-02-18T02:53:21;10.60;99.90
22161;DHT22;49035;48.812;11.762;2023-02-18T02:55:47;10.60;99.90
22161;DHT22;49035;48.812;11.762;2023-02-18T02:58:17;10.60;99.90
22161;DHT22;49035;48.812;11.762;2023-02-18T03:03:38;10.60;99.90
22161;DHT22;49035;48.812;11.762;2023-02-18T03:09:32;10.60;99.90
22161;DHT22;49035;48.812;11.762;2023-02-18T03:12:35;10.60;99.90
22161;DHT22;49035;48.812;11.762;2023-02-18T03:15:22;10.60;99.90
22161;DHT22;49035;48.812;11.762;2023-02-18T03:18:02;10.60;99.90
22161;DHT22;49035;48.812;11.762;2023-02-18T03:20:40;10.60;99.90
22161;DHT22;49035;48.812;11.762;2023-02-18T03:23:10;10.50;99.90
22161;DHT22;49035;48.812;11.762;2023-02-18T03:25:39;10.60;99.90
22161;DHT22;49035;48.812;11.762;2023-02-18T03:28:10;10.60;99.90
22161;DHT22;49035;48.812;11.762;2023-02-18T03:30:55;10.60;99.90
22161;DHT22;49035;48.812;11.762;2023-02-18T03:33:37;10.60;99.90
22161;DHT22;49035;48.812;11.762;2023-02-18T03:36:05;10.60;99.90
22161;DHT22;49035;48.812;11.762;2023-02-18T03:38:37;10.60;99.90
22161;DHT22;49035;48.812;11.762;2023-02-18T03:41:04;10.60;99.90
22161;DHT22;49035;48.812;11.762;2023-02-18T03:43:30;10.70;99.90
22161;DHT22;49035;48.812;11.762;2023-02-18T03:45:56;10.70;99.90
22161;DHT22;49035;48.812;11.762;2023-02-18T03:48:22;10.70;99.90
22161;DHT22;49035;48.812;11.762;2023-02-18T03:50:47;10.60;99.90
22161;DHT22;49035;48.812;11.762;2023-02-18T03:53:13;10.60;99.90
22161;DHT22;49035;48.812;11.762;2023-02-18T03:55:39;10.60;99.90
22161;DHT22;49035;48.812;11.762;2023-02-18T03:58:04;10.70;99.90
22161;DHT22;49035;48.812;11.762;2023-02-18T04:00:30;10.60;99.90
22161;DHT22;49035;48.812;11.762;2023-02-18T04:02:55;10.60;99.90
22161;DHT22;49035;48.812;11.762;2023-02-18T04:05:21;10.70;99.90
22161;DHT22;49035;48.812;11.762;2023-02-18T04:07:47;10.70;99.90
22161;DHT22;49035;48.812;11.762;2023-02-18T04:10:12;10.60;99.90
22161;DHT22;49035;48.812;11.762;2023-02-18T04:12:38;10.60;99.90
22161;DHT22;49035;48.812;11.762;2023-02-18T04:15:04;10.60;99.90
22161;DHT22;49035;48.812;11.762;2023-02-18T04:17:31;10.70;99.90
22161;DHT22;49035;48.812;11.762;2023-02-18T04:19:57;10.70;99.90
22161;DHT22;49035;48.812;11.762;2023-02-18T04:22:23;10.80;99.90
22161;DHT22;49035;48.812;11.762;2023-02-18T04:24:48;10.80;99.90
22161;DHT22;49035;48.812;11.762;2023-02-18T04:27:14;10.70;99.90
22161;DHT22;49035;48.812;11.762;2023-02-18T04:29:40;10.70;99.90
22161;DHT22;49035;48.812;11.762;2023-02-18T04:32:05;10.70;99.90
22161;DHT22;49035;48.812;11.762;2023-02-18T04:34:31;10.60;99.90
22161;DHT22;49035;48.812;11.762;2023-02-18T04:36:56;10.70;99.90
22161;DHT22;49035;48.812;11.762;2023-02-18T04:39:23;10.70;99.90
22161;DHT22;49035;48.812;11.762;2023-02-18T04:41:48;10.70;99.90
22161;DHT22;49035;48.812;11.762;2023-02-18T04:44:14;10.70;99.90
22161;DHT22;49035;48.812;11.762;2023-02-18T04:46:40;10.70;99.90
22161;DHT22;49035;48.812;11.762;2023-02-18T04:49:05;10.70;99.90
22161;DHT22;49035;48.812;11.762;2023-02-18T04:51:31;10.70;99.90
22161;DHT22;49035;48.812;11.762;2023-02-18T04:53:56;10.70;99.90
22161;DHT22;49035;48.812;11.762;2023-02-18T04:56:22;10.60;99.90
22161;DHT22;49035;48.812;11.762;2023-02-18T04:58:48;10.60;99.90
22161;DHT22;49035;48.812;11.762;2023-02-18T05:01:13;10.60;99.90
22161;DHT22;49035;48.812;11.762;2023-02-18T05:03:39;10.60;99.90
22161;DHT22;49035;48.812;11.762;2023-02-18T05:06:05;10.70;99.90
22161;DHT22;49035;48.812;11.762;2023-02-18T05:08:30;10.70;99.90
22161;DHT22;49035;48.812;11.762;2023-02-18T05:10:56;10.70;99.90
22161;DHT22;49035;48.812;11.762;2023-02-18T05:13:21;10.60;99.90
22161;DHT22;49035;48.812;11.762;2023-02-18T05:15:47;10.60;99.90
22161;DHT22;49035;48.812;11.762;2023-02-18T05:18:13;10.60;99.90
22161;DHT22;49035;48.812;11.762;2023-02-18T05:20:39;10.60;99.90
22161;DHT22;49035;48.812;11.762;2023-02-18T05:23:04;10.60;99.90
22161;DHT22;49035;48.812;11.762;2023-02-18T05:25:30;10.70;99.90
22161;DHT22;49035;48.812;11.762;2023-02-18T05:28:03;10.60;99.90
22161;DHT22;49035;48.812;11.762;2023-02-18T05:30:29;10.60;99.90
22161;DHT22;49035;48.812;11.762;2023-02-18T05:32:54;10.60;99.90
22161;DHT22;49035;48.812;11.762;2023-02-18T05:35:20;10.60;99.90
22161;DHT22;49035;48.812;11.762;2023-02-18T05:37:46;10.70;99.90
22161;DHT22;49035;48.812;11.762;2023-02-18T05:40:11;10.70;99.90
22161;DHT22;49035;48.812;11.762;2023-02-18T05:42:37;10.60;99.90
22161;DHT22;49035;48.812;11.762;2023-02-18T05:45:03;10.60;99.90
22161;DHT22;49035;48.812;11.762;2023-02-18T05:47:28;10.60;99.90
22161;DHT22;49035;48.812;11.762;2023-02-18T05:49:54;10.60;99.90
22161;DHT22;49035;48.812;11.762;2023-02-18T05:52:20;10.60;99.90
22161;DHT22;49035;48.812;11.762;2023-02-18T05:54:46;10.60;99.90
22161;DHT22;49035;48.812;11.762;2023-02-18T05:57:15;10.50;99.90
22161;DHT22;49035;48.812;11.762;2023-02-18T05:59:41;10.60;99.90
22161;DHT22;49035;48.812;11.762;2023-02-18T06:02:06;10.60;99.90
22161;DHT22;49035;48.812;11.762;2023-02-18T06:04:32;10.60;99.90
22161;DHT22;49035;48.812;11.762;2023-02-18T06:06:58;10.50;99.90
22161;DHT22;49035;48.812;11.762;2023-02-18T06:09:23;10.50;99.90
22161;DHT22;49035;48.812;11.762;2023-02-18T06:11:49;10.40;99.90
22161;DHT22;49035;48.812;11.762;2023-02-18T06:14:15;10.50;99.90
22161;DHT22;49035;48.812;11.762;2023-02-18T06:16:43;10.50;99.90
22161;DHT22;49035;48.812;11.762;2023-02-18T06:19:09;10.50;99.90
22161;DHT22;49035;48.812;11.762;2023-02-18T06:21:37;10.50;99.90
22161;DHT22;49035;48.812;11.762;2023-02-18T06:24:03;10.60;99.90
22161;DHT22;49035;48.812;11.762;2023-02-18T06:26:29;10.60;99.90
22161;DHT22;49035;48.812;11.762;2023-02-18T06:28:54;10.60;99.90
22161;DHT22;49035;48.812;11.762;2023-02-18T06:31:20;10.50;99.90
22161;DHT22;49035;48.812;11.762;2023-02-18T06:33:46;10.70;99.90
22161;DHT22;49035;48.812;11.762;2023-02-18T06:36:11;10.60;99.90
22161;DHT22;49035;48.812;11.762;2023-02-18T06:38:39;10.70;99.90
22161;DHT22;49035;48.812;11.762;2023-02-18T06:41:05;10.70;99.90
22161;DHT22;49035;48.812;11.762;2023-02-18T06:43:31;10.70;99.90
22161;DHT22;49035;48.812;11.762;2023-02-18T06:45:57;10.60;99.90
22161;DHT22;49035;48.812;11.762;2023-02-18T06:48:23;10.60;99.90
22161;DHT22;49035;48.812;11.762;2023-02-18T06:50:49;10.60;99.90
22161;DHT22;49035;48.812;11.762;2023-02-18T06:53:15;10.60;99.90
22161;DHT22;49035;48.812;11.762;2023-02-18T06:55:41;10.70;99.90
22161;DHT22;49035;48.812;11.762;2023-02-18T06:58:08;10.70;99.90
22161;DHT22;49035;48.812;11.762;2023-02-18T07:00:35;10.80;99.90
22161;DHT22;49035;48.812;11.762;2023-02-18T07:03:01;10.80;99.90
22161;DHT22;49035;48.812;11.762;2023-02-18T07:05:27;10.80;99.90
22161;DHT22;49035;48.812;11.762;2023-02-18T07:07:52;10.90;99.90
22161;DHT22;49035;48.812;11.762;2023-02-18T07:10:18;10.80;99.90
22161;DHT22;49035;48.812;11.762;2023-02-18T07:12:43;10.90;99.90
22161;DHT22;49035;48.812;11.762;2023-02-18T07:15:09;10.90;99.90
22161;DHT22;49035;48.812;11.762;2023-02-18T07:17:35;10.90;99.90
22161;DHT22;49035;48.812;11.762;2023-02-18T07:20:01;10.90;99.90
22161;DHT22;49035;48.812;11.762;2023-02-18T07:22:27;10.90;99.90
22161;DHT22;49035;48.812;11.762;2023-02-18T07:24:53;10.90;99.90
22161;DHT22;49035;48.812;11.762;2023-02-18T07:27:20;10.90;99.90
22161;DHT22;49035;48.812;11.762;2023-02-18T07:29:45;11.00;99.90
22161;DHT22;49035;48.812;11.762;2023-02-18T07:32:12;11.10;99.90
22161;DHT22;49035;48.812;11.762;2023-02-18T07:34:38;11.20;99.90
22161;DHT22;49035;48.812;11.762;2023-02-18T07:37:03;11.30;99.90
22161;DHT22;49035;48.812;11.762;2023-02-18T07:39:43;11.40;99.90
22161;DHT22;49035;48.812;11.762;2023-02-18T07:42:09;11.50;99.90
22161;DHT22;49035;48.812;11.762;2023-02-18T07:44:36;11.50;99.90
22161;DHT22;49035;48.812;11.762;2023-02-18T07:47:03;11.50;99.90
22161;DHT22;49035;48.812;11.762;2023-02-18T07:49:29;11.70;99.90
22161;DHT22;49035;48.812;11.762;2023-02-18T07:51:54;11.80;99.90
22161;DHT22;49035;48.812;11.762;2023-02-18T07:54:20;11.90;99.90
22161;DHT22;49035;48.812;11.762;2023-02-18T07:56:46;12.10;99.90
22161;DHT22;49035;48.812;11.762;2023-02-18T07:59:12;12.20;99.90
22161;DHT22;49035;48.812;11.762;2023-02-18T08:01:38;12.30;99.90
22161;DHT22;49035;48.812;11.762;2023-02-18T08:04:04;12.40;99.90
22161;DHT22;49035;48.812;11.762;2023-02-18T08:06:48;12.50;99.90
22161;DHT22;49035;48.812;11.762;2023-02-18T08:09:16;12.60;99.90
22161;DHT22;49035;48.812;11.762;2023-02-18T08:11:42;12.70;99.90
22161;DHT22;49035;48.812;11.762;2023-02-18T08:14:08;12.70;99.90
22161;DHT22;49035;48.812;11.762;2023-02-18T08:16:34;12.70;99.90
22161;DHT22;49035;48.812;11.762;2023-02-18T08:19:01;12.90;99.90
22161;DHT22;49035;48.812;11.762;2023-02-18T08:21:28;13.00;99.90
22161;DHT22;49035;48.812;11.762;2023-02-18T08:23:54;13.20;99.90
22161;DHT22;49035;48.812;11.762;2023-02-18T08:26:20;13.50;99.90
22161;DHT22;49035;48.812;11.762;2023-02-18T08:28:46;13.70;99.90
22161;DHT22;49035;48.812;11.762;2023-02-18T08:31:27;13.70;99.90
22161;DHT22;49035;48.812;11.762;2023-02-18T08:33:54;13.60;99.90
22161;DHT22;49035;48.812;11.762;2023-02-18T08:36:21;13.60;99.90
22161;DHT22;49035;48.812;11.762;2023-02-18T08:38:46;13.70;99.90
22161;DHT22;49035;48.812;11.762;2023-02-18T08:41:12;13.60;99.90
22161;DHT22;49035;48.812;11.762;2023-02-18T08:43:39;13.60;99.90
22161;DHT22;49035;48.812;11.762;2023-02-18T08:46:04;13.60;99.90
22161;DHT22;49035;48.812;11.762;2023-02-18T08:48:31;13.60;99.90
22161;DHT22;49035;48.812;11.762;2023-02-18T08:50:56;13.80;99.90
22161;DHT22;49035;48.812;11.762;2023-02-18T08:53:22;14.00;99.90
22161;DHT22;49035;48.812;11.762;2023-02-18T08:55:48;14.20;99.90
22161;DHT22;49035;48.812;11.762;2023-02-18T08:58:14;14.30;99.90
22161;DHT22;49035;48.812;11.762;2023-02-18T09:00:40;14.50;99.90
22161;DHT22;49035;48.812;11.762;2023-02-18T09:03:07;14.60;99.90
22161;DHT22;49035;48.812;11.762;2023-02-18T09:05:32;14.50;99.90
22161;DHT22;49035;48.812;11.762;2023-02-18T09:07:58;14.40;99.90
22161;DHT22;49035;48.812;11.762;2023-02-18T09:10:24;14.20;99.90
22161;DHT22;49035;48.812;11.762;2023-02-18T09:12:49;13.90;99.90
22161;DHT22;49035;48.812;11.762;2023-02-18T09:15:16;13.80;99.90
22161;DHT22;49035;48.812;11.762;2023-02-18T09:17:41;13.50;99.90
22161;DHT22;49035;48.812;11.762;2023-02-18T09:20:07;13.40;99.90
22161;DHT22;49035;48.812;11.762;2023-02-18T09:22:33;13.40;99.90
22161;DHT22;49035;48.812;11.762;2023-02-18T09:24:59;13.40;99.90
22161;DHT22;49035;48.812;11.762;2023-02-18T09:27:24;13.30;99.90
22161;DHT22;49035;48.812;11.762;2023-02-18T09:29:50;13.30;99.90
22161;DHT22;49035;48.812;11.762;2023-02-18T09:32:16;13.40;99.90
22161;DHT22;49035;48.812;11.762;2023-02-18T09:34:43;13.50;99.90
22161;DHT22;49035;48.812;11.762;2023-02-18T09:37:09;13.30;99.90
22161;DHT22;49035;48.812;11.762;2023-02-18T09:39:35;13.40;99.90
22161;DHT22;49035;48.812;11.762;2023-02-18T09:42:03;13.50;99.90
22161;DHT22;49035;48.812;11.762;2023-02-18T09:44:40;13.80;99.90
22161;DHT22;49035;48.812;11.762;2023-02-18T09:47:30;13.90;99.90
22161;DHT22;49035;48.812;11.762;2023-02-18T09:50:03;13.90;99.90
22161;DHT22;49035;48.812;11.762;2023-02-18T09:52:35;14.00;99.90
22161;DHT22;49035;48.812;11.762;2023-02-18T09:55:30;14.20;99.90
22161;DHT22;49035;48.812;11.762;2023-02-18T09:57:59;14.20;99.90
22161;DHT22;49035;48.812;11.762;2023-02-18T10:00:33;14.30;99.90
22161;DHT22;49035;48.812;11.762;2023-02-18T10:03:15;14.40;99.90
22161;DHT22;49035;48.812;11.762;2023-02-18T10:08:20;14.30;99.90
22161;DHT22;49035;48.812;11.762;2023-02-18T10:10:48;14.20;99.90
22161;DHT22;49035;48.812;11.762;2023-02-18T10:13:16;14.10;99.90
22161;DHT22;49035;48.812;11.762;2023-02-18T10:15:42;14.00;99.90
22161;DHT22;49035;48.812;11.762;2023-02-18T10:18:39;13.90;99.90
22161;DHT22;49035;48.812;11.762;2023-02-18T10:21:11;13.70;99.90
22161;DHT22;49035;48.812;11.762;2023-02-18T10:23:51;13.70;99.90
22161;DHT22;49035;48.812;11.762;2023-02-18T10:26:17;13.60;99.90
22161;DHT22;49035;48.812;11.762;2023-02-18T10:28:44;13.60;99.90
22161;DHT22;49035;48.812;11.762;2023-02-18T10:31:16;13.50;99.90
22161;DHT22;49035;48.812;11.762;2023-02-18T10:35:04;13.50;99.90
22161;DHT22;49035;48.812;11.762;2023-02-18T10:47:40;13.90;99.90
22161;DHT22;49035;48.812;11.762;2023-02-18T10:50:18;13.80;99.90
22161;DHT22;49035;48.812;11.762;2023-02-18T10:52:51;13.90;99.90
22161;DHT22;49035;48.812;11.762;2023-02-18T10:55:18;13.80;99.90
22161;DHT22;49035;48.812;11.762;2023-02-18T10:57:57;13.70;99.90
22161;DHT22;49035;48.812;11.762;2023-02-18T11:00:33;13.70;99.90
22161;DHT22;49035;48.812;11.762;2023-02-18T11:03:18;13.80;99.90
22161;DHT22;49035;48.812;11.762;2023-02-18T11:05:45;13.80;99.90
22161;DHT22;49035;48.812;11.762;2023-02-18T11:08:24;13.90;99.90
22161;DHT22;49035;48.812;11.762;2023-02-18T11:10:51;14.10;99.90
22161;DHT22;49035;48.812;11.762;2023-02-18T11:13:25;14.20;99.90
22161;DHT22;49035;48.812;11.762;2023-02-18T11:15:57;14.30;99.90
22161;DHT22;49035;48.812;11.762;2023-02-18T11:18:46;14.20;99.90
22161;DHT22;49035;48.812;11.762;2023-02-18T11:21:35;14.30;99.90
22161;DHT22;49035;48.812;11.762;2023-02-18T11:24:15;14.20;99.90
22161;DHT22;49035;48.812;11.762;2023-02-18T11:26:42;14.30;99.90
22161;DHT22;49035;48.812;11.762;2023-02-18T11:29:23;14.30;99.90
22161;DHT22;49035;48.812;11.762;2023-02-18T11:31:54;14.40;99.90
22161;DHT22;49035;48.812;11.762;2023-02-18T11:34:29;14.40;99.90
22161;DHT22;49035;48.812;11.762;2023-02-18T11:37:16;14.60;99.90
22161;DHT22;49035;48.812;11.762;2023-02-18T11:39:45;14.60;99.90
22161;DHT22;49035;48.812;11.762;2023-02-18T11:42:14;14.50;99.90
22161;DHT22;49035;48.812;11.762;2023-02-18T11:44:54;14.40;99.70
22161;DHT22;49035;48.812;11.762;2023-02-18T11:47:33;14.20;99.90
22161;DHT22;49035;48.812;11.762;2023-02-18T11:52:36;13.90;99.90
22161;DHT22;49035;48.812;11.762;2023-02-18T11:55:16;13.90;99.90
22161;DHT22;49035;48.812;11.762;2023-02-18T11:57:46;14.20;99.90
22161;DHT22;49035;48.812;11.762;2023-02-18T12:03:06;14.20;99.90
22161;DHT22;49035;48.812;11.762;2023-02-18T12:05:33;14.10;99.90
22161;DHT22;49035;48.812;11.762;2023-02-18T12:08:06;13.90;99.90
22161;DHT22;49035;48.812;11.762;2023-02-18T12:10:51;13.90;99.90
22161;DHT22;49035;48.812;11.762;2023-02-18T12:21:34;14.00;99.90
22161;DHT22;49035;48.812;11.762;2023-02-18T12:24:10;14.10;99.90
22161;DHT22;49035;48.812;11.762;2023-02-18T12:26:44;14.00;99.90
22161;DHT22;49035;48.812;11.762;2023-02-18T12:32:11;14.10;99.90
22161;DHT22;49035;48.812;11.762;2023-02-18T12:43:32;14.30;99.90
22161;DHT22;49035;48.812;11.762;2023-02-18T12:51:46;14.10;99.50
22161;DHT22;49035;48.812;11.762;2023-02-18T12:54:37;14.00;99.00
22161;DHT22;49035;48.812;11.762;2023-02-18T12:57:21;14.00;98.40
22161;DHT22;49035;48.812;11.762;2023-02-18T13:10:55;14.20;94.40
22161;DHT22;49035;48.812;11.762;2023-02-18T13:13:36;14.20;94.20
22161;DHT22;49035;48.812;11.762;2023-02-18T13:16:22;14.10;93.70
22161;DHT22;49035;48.812;11.762;2023-02-18T13:19:00;14.10;93.80
22161;DHT22;49035;48.812;11.762;2023-02-18T13:21:27;14.00;94.30
22161;DHT22;49035;48.812;11.762;2023-02-18T13:24:02;14.00;94.20
22161;DHT22;49035;48.812;11.762;2023-02-18T13:26:32;13.90;94.30
22161;DHT22;49035;48.812;11.762;2023-02-18T13:29:12;13.90;94.10
22161;DHT22;49035;48.812;11.762;2023-02-18T13:34:47;14.00;94.20
22161;DHT22;49035;48.812;11.762;2023-02-18T13:37:34;13.90;94.20
22161;DHT22;49035;48.812;11.762;2023-02-18T13:40:03;14.00;94.30
22161;DHT22;49035;48.812;11.762;2023-02-18T13:42:35;14.10;93.90
22161;DHT22;49035;48.812;11.762;2023-02-18T13:45:21;14.10;93.90
22161;DHT22;49035;48.812;11.762;2023-02-18T13:47:48;14.20;94.20
22161;DHT22;49035;48.812;11.762;2023-02-18T13:58:34;14.10;93.60
22161;DHT22;49035;48.812;11.762;2023-02-18T14:01:51;14.10;93.70
22161;DHT22;49035;48.812;11.762;2023-02-18T14:03:55;14.30;93.50
22161;DHT22;49035;48.812;11.762;2023-02-18T14:06:34;14.30;93.60
22161;DHT22;49035;48.812;11.762;2023-02-18T14:11:54;14.30;93.60
22161;DHT22;49035;48.812;11.762;2023-02-18T14:22:49;14.40;93.70
22161;DHT22;49035;48.812;11.762;2023-02-18T14:25:36;14.30;93.90
22161;DHT22;49035;48.812;11.762;2023-02-18T14:33:34;14.20;94.60
22161;DHT22;49035;48.812;11.762;2023-02-18T14:36:31;14.30;94.30
22161;DHT22;49035;48.812;11.762;2023-02-18T14:49:40;14.10;94.20
22161;DHT22;49035;48.812;11.762;2023-02-18T14:52:15;14.00;94.30
22161;DHT22;49035;48.812;11.762;2023-02-18T14:54:44;13.90;94.90
22161;DHT22;49035;48.812;11.762;2023-02-18T14:57:16;13.80;94.90
22161;DHT22;49035;48.812;11.762;2023-02-18T14:59:44;13.70;94.80
22161;DHT22;49035;48.812;11.762;2023-02-18T15:02:34;13.60;95.60
22161;DHT22;49035;48.812;11.762;2023-02-18T15:05:21;13.60;95.80
22161;DHT22;49035;48.812;11.762;2023-02-18T15:10:20;13.50;96.10
22161;DHT22;49035;48.812;11.762;2023-02-18T15:12:46;13.40;96.50
22161;DHT22;49035;48.812;11.762;2023-02-18T15:15:13;13.40;96.40
22161;DHT22;49035;48.812;11.762;2023-02-18T15:17:47;13.40;96.80
22161;DHT22;49035;48.812;11.762;2023-02-18T15:20:14;13.40;96.90
22161;DHT22;49035;48.812;11.762;2023-02-18T15:22:40;13.40;97.10
22161;DHT22;49035;48.812;11.762;2023-02-18T15:25:08;13.40;96.90
22161;DHT22;49035;48.812;11.762;2023-02-18T15:27:39;13.30;96.70
22161;DHT22;49035;48.812;11.762;2023-02-18T15:30:16;13.20;97.10
22161;DHT22;49035;48.812;11.762;2023-02-18T15:32:52;13.20;96.80
22161;DHT22;49035;48.812;11.762;2023-02-18T15:35:20;13.10;97.30
22161;DHT22;49035;48.812;11.762;2023-02-18T15:37:52;13.10;97.10
22161;DHT22;49035;48.812;11.762;2023-02-18T15:40:19;13.10;97.10
22161;DHT22;49035;48.812;11.762;2023-02-18T15:42:49;13.00;97.10
22161;DHT22;49035;48.812;11.762;2023-02-18T15:45:18;13.10;97.70
22161;DHT22;49035;48.812;11.762;2023-02-18T15:47:49;13.00;97.60
22161;DHT22;49035;48.812;11.762;2023-02-18T15:50:19;13.00;97.70
22161;DHT22;49035;48.812;11.762;2023-02-18T15:52:46;13.00;97.50
22161;DHT22;49035;48.812;11.762;2023-02-18T15:55:30;13.00;97.50
22161;DHT22;49035;48.812;11.762;2023-02-18T15:58:03;12.90;97.80
22161;DHT22;49035;48.812;11.762;2023-02-18T16:00:36;12.90;97.90
22161;DHT22;49035;48.812;11.762;2023-02-18T16:03:10;12.80;98.10
22161;DHT22;49035;48.812;11.762;2023-02-18T16:05:37;12.80;98.20
22161;DHT22;49035;48.812;11.762;2023-02-18T16:08:16;12.70;98.40
22161;DHT22;49035;48.812;11.762;2023-02-18T16:10:56;12.70;98.50
22161;DHT22;49035;48.812;11.762;2023-02-18T16:13:24;12.70;98.70
22161;DHT22;49035;48.812;11.762;2023-02-18T16:15:51;12.60;98.80
22161;DHT22;49035;48.812;11.762;2023-02-18T16:18:30;12.60;98.90
22161;DHT22;49035;48.812;11.762;2023-02-18T16:21:05;12.60;98.90
22161;DHT22;49035;48.812;11.762;2023-02-18T16:23:54;12.50;99.20
22161;DHT22;49035;48.812;11.762;2023-02-18T16:29:14;12.40;99.40
22161;DHT22;49035;48.812;11.762;2023-02-18T16:31:41;12.40;99.50
22161;DHT22;49035;48.812;11.762;2023-02-18T16:34:07;12.40;99.80
22161;DHT22;49035;48.812;11.762;2023-02-18T16:36:34;12.30;99.70
22161;DHT22;49035;48.812;11.762;2023-02-18T16:39:00;12.30;99.90
22161;DHT22;49035;48.812;11.762;2023-02-18T16:41:27;12.30;99.90
22161;DHT22;49035;48.812;11.762;2023-02-18T16:43:53;12.20;99.90
22161;DHT22;49035;48.812;11.762;2023-02-18T16:46:21;12.20;99.90
22161;DHT22;49035;48.812;11.762;2023-02-18T16:48:52;12.10;99.90
22161;DHT22;49035;48.812;11.762;2023-02-18T16:53:47;12.20;99.90
22161;DHT22;49035;48.812;11.762;2023-02-18T16:56:17;12.20;99.90
22161;DHT22;49035;48.812;11.762;2023-02-18T16:58:43;12.20;99.90
22161;DHT22;49035;48.812;11.762;2023-02-18T17:03:49;12.00;99.90
22161;DHT22;49035;48.812;11.762;2023-02-18T17:06:15;12.00;99.90
22161;DHT22;49035;48.812;11.762;2023-02-18T17:08:41;12.00;99.90
22161;DHT22;49035;48.812;11.762;2023-02-18T17:11:18;12.00;99.90
22161;DHT22;49035;48.812;11.762;2023-02-18T17:13:46;12.00;99.90
22161;DHT22;49035;48.812;11.762;2023-02-18T17:16:12;12.00;99.90
22161;DHT22;49035;48.812;11.762;2023-02-18T17:18:38;12.00;99.90
22161;DHT22;49035;48.812;11.762;2023-02-18T17:21:04;12.00;99.90
22161;DHT22;49035;48.812;11.762;2023-02-18T17:23:29;12.00;99.90
22161;DHT22;49035;48.812;11.762;2023-02-18T17:25:55;11.90;99.90
22161;DHT22;49035;48.812;11.762;2023-02-18T17:28:20;11.90;99.90
22161;DHT22;49035;48.812;11.762;2023-02-18T17:30:51;11.80;99.90
22161;DHT22;49035;48.812;11.762;2023-02-18T17:33:18;11.80;99.90
22161;DHT22;49035;48.812;11.762;2023-02-18T17:35:44;11.80;99.90
22161;DHT22;49035;48.812;11.762;2023-02-18T17:38:11;11.90;99.90
22161;DHT22;49035;48.812;11.762;2023-02-18T17:40:37;11.80;99.90
22161;DHT22;49035;48.812;11.762;2023-02-18T17:43:03;11.80;99.90
22161;DHT22;49035;48.812;11.762;2023-02-18T17:45:33;11.80;99.90
22161;DHT22;49035;48.812;11.762;2023-02-18T17:48:00;11.80;99.90
22161;DHT22;49035;48.812;11.762;2023-02-18T17:50:27;11.70;99.90
22161;DHT22;49035;48.812;11.762;2023-02-18T17:52:53;11.80;99.90
22161;DHT22;49035;48.812;11.762;2023-02-18T17:55:31;11.70;99.90
22161;DHT22;49035;48.812;11.762;2023-02-18T17:57:58;11.70;99.90
22161;DHT22;49035;48.812;11.762;2023-02-18T18:00:35;11.80;99.90